createdAt,value
2019-01-27T00:04:15.185Z,0.60
2019-01-27T00:09:20.223Z,0.60
2019-01-27T00:14:25.398Z,0.70
2019-01-27T00:19:31.170Z,0.67
2019-01-27T00:24:37.955Z,0.70
2019-01-27T00:29:42.905Z,0.50
2019-01-27T00:34:47.767Z,0.50
2019-01-27T00:39:52.901Z,0.50
2019-01-27T00:44:59.832Z,0.50
2019-01-27T00:50:06.751Z,0.50
2019-01-27T00:55:14.649Z,0.40
2019-01-27T01:00:22.205Z,0.50
2019-01-27T01:05:27.105Z,0.50
2019-01-27T01:10:32.044Z,0.40
2019-01-27T01:15:37.287Z,0.53
2019-01-27T01:20:43.540Z,0.50
2019-01-27T01:25:48.728Z,0.30
2019-01-27T01:30:54.008Z,0.50
2019-01-27T01:35:59.116Z,0.40
2019-01-27T01:41:04.393Z,0.37
2019-01-27T01:46:09.263Z,0.30
2019-01-27T01:51:15.183Z,0.30
2019-01-27T01:56:22.076Z,0.20
2019-01-27T02:01:27.112Z,0.30
2019-01-27T02:06:32.249Z,0.20
2019-01-27T02:11:38.559Z,0.20
2019-01-27T02:16:43.472Z,0.20
2019-01-27T02:21:48.465Z,0.20
2019-01-27T02:26:53.645Z,0.30
2019-01-27T02:31:58.754Z,0.30
2019-01-27T02:37:04.769Z,0.30
2019-01-27T02:42:09.964Z,0.30
2019-01-27T02:47:15.084Z,0.30
2019-01-27T02:52:20.449Z,0.40
2019-01-27T02:57:25.363Z,0.20
2019-01-27T03:02:31.708Z,0.20
2019-01-27T03:07:38.722Z,0.30
2019-01-27T03:12:43.738Z,0.40
2019-01-27T03:17:49.061Z,0.20
2019-01-27T03:22:54.008Z,0.13
2019-01-27T03:27:59.135Z,0.10
2019-01-27T03:33:04.162Z,0.20
2019-01-27T03:38:09.065Z,0.20
2019-01-27T03:43:14.245Z,0.20
2019-01-27T03:48:20.201Z,0.20
2019-01-27T03:53:25.139Z,0.17
2019-01-27T03:58:30.132Z,0.20
2019-01-27T04:03:35.171Z,0.30
2019-01-27T04:08:40.365Z,0.20
2019-01-27T04:13:45.248Z,0.20
2019-01-27T04:18:50.408Z,0.20
2019-01-27T04:23:56.464Z,0.27
2019-01-27T04:29:01.172Z,0.20
2019-01-27T04:34:06.149Z,0.30
2019-01-27T04:39:11.757Z,0.40
2019-01-27T04:44:18.324Z,0.10
2019-01-27T04:49:23.944Z,0.20
2019-01-27T04:54:30.241Z,0.10
2019-01-27T04:59:35.156Z,0.13
2019-01-27T05:04:41.241Z,0.20
2019-01-27T05:09:47.625Z,0.20
2019-01-27T05:14:52.503Z,0.20
2019-01-27T05:19:57.367Z,0.30
2019-01-27T05:25:02.533Z,0.30
2019-01-27T05:30:10.375Z,0.20
2019-01-27T05:35:15.917Z,0.60
2019-01-27T05:40:20.876Z,0.30
2019-01-27T05:45:26.066Z,0.30
2019-01-27T05:50:32.556Z,0.30
2019-01-27T05:55:37.808Z,0.20
2019-01-27T06:00:47.429Z,0.20
2019-01-27T06:05:52.412Z,0.10
2019-01-27T06:10:57.900Z,0.20
2019-01-27T06:16:04.826Z,0.20
2019-01-27T06:21:11.048Z,0.20
2019-01-27T06:26:15.991Z,0.20
2019-01-27T06:31:21.109Z,0.20
2019-01-27T06:36:25.992Z,0.40
2019-01-27T06:41:30.953Z,0.30
2019-01-27T06:46:36.313Z,0.33
2019-01-27T06:51:41.240Z,0.30
2019-01-27T06:56:47.591Z,0.40
2019-01-27T07:02:18.518Z,0.33
2019-01-27T07:07:41.427Z,0.40
2019-01-27T07:13:12.128Z,0.30
2019-01-27T07:18:42.272Z,0.40
2019-01-27T07:24:09.773Z,0.43
2019-01-27T07:29:33.725Z,0.30
2019-01-27T07:34:56.593Z,0.50
2019-01-27T07:40:23.401Z,0.50
2019-01-27T07:45:38.678Z,0.30
2019-01-27T07:51:06.712Z,0.60
2019-01-27T07:56:51.315Z,0.73
2019-01-27T08:02:15.434Z,0.60
2019-01-27T08:07:36.337Z,0.50
2019-01-27T08:13:16.895Z,0.60
2019-01-27T08:18:40.274Z,0.70
2019-01-27T08:24:03.356Z,0.80
2019-01-27T08:29:18.463Z,0.80
2019-01-27T08:34:36.025Z,0.80
2019-01-27T08:40:01.140Z,0.80
2019-01-27T08:45:14.845Z,0.90
2019-01-27T08:50:20.503Z,0.80
2019-01-27T08:55:25.435Z,1.07
2019-01-27T09:00:37.940Z,0.90
2019-01-27T09:05:49.263Z,0.90
2019-01-27T09:11:03.119Z,0.90
2019-01-27T09:16:25.784Z,1.50
2019-01-27T09:21:53.235Z,0.97
2019-01-27T09:27:24.176Z,1.70
2019-01-27T09:32:52.887Z,1.17
2019-01-27T09:38:23.247Z,1.80
2019-01-27T09:43:44.668Z,1.00
2019-01-27T09:49:01.418Z,1.50
2019-01-27T09:54:25.303Z,1.30
2019-01-27T09:59:44.005Z,0.93
2019-01-27T10:05:14.696Z,0.77
2019-01-27T10:10:37.915Z,0.67
2019-01-27T10:16:04.944Z,0.70
2019-01-27T10:21:29.888Z,1.33
2019-01-27T10:26:48.256Z,1.33
2019-01-27T10:32:15.497Z,1.47
2019-01-27T10:37:41.014Z,1.70
2019-01-27T10:42:53.640Z,1.00
2019-01-27T10:48:14.768Z,0.80
2019-01-27T10:53:38.094Z,0.60
2019-01-27T10:58:55.727Z,0.90
2019-01-27T11:04:20.958Z,1.00
2019-01-27T11:09:38.855Z,1.70
2019-01-27T11:14:54.825Z,1.50
2019-01-27T11:20:18.101Z,0.90
2019-01-27T11:25:38.034Z,1.23
2019-01-27T11:30:52.585Z,1.37
2019-01-27T11:36:17.853Z,1.20
2019-01-27T11:41:48.712Z,1.10
2019-01-27T11:47:15.785Z,1.50
2019-01-27T11:52:36.430Z,1.50
2019-01-27T11:57:43.656Z,1.60
2019-01-27T12:02:48.528Z,1.40
2019-01-27T12:07:53.842Z,2.20
2019-01-27T12:12:59.063Z,3.73
2019-01-27T12:18:04.052Z,1.87
2019-01-27T12:23:09.804Z,1.33
2019-01-27T12:28:20.282Z,1.23
2019-01-27T12:33:25.661Z,1.10
2019-01-27T12:38:30.577Z,1.37
2019-01-27T12:43:36.485Z,1.20
2019-01-27T12:48:41.669Z,0.70
2019-01-27T12:53:47.189Z,0.80
2019-01-27T12:58:52.246Z,0.90
2019-01-27T13:03:58.177Z,0.70
2019-01-27T13:09:05.808Z,1.90
2019-01-27T13:14:11.897Z,0.80
2019-01-27T13:19:18.177Z,0.40
2019-01-27T13:24:24.316Z,0.50
2019-01-27T13:29:29.450Z,0.40
2019-01-27T13:34:37.227Z,0.40
2019-01-27T13:39:42.131Z,0.37
2019-01-27T13:44:47.730Z,0.37
2019-01-27T13:49:52.696Z,0.50
2019-01-27T13:54:57.588Z,0.60
2019-01-27T14:00:03.581Z,0.40
2019-01-27T14:05:08.924Z,0.67
2019-01-27T14:10:16.302Z,0.90
2019-01-27T14:15:23.584Z,0.70
2019-01-27T14:20:29.557Z,0.47
2019-01-27T14:25:36.702Z,0.93
2019-01-27T14:30:43.649Z,0.90
2019-01-27T14:35:48.755Z,0.83
2019-01-27T14:40:53.927Z,0.60
2019-01-27T14:46:00.433Z,0.70
2019-01-27T14:51:05.832Z,0.50
2019-01-27T14:56:11.758Z,0.70
2019-01-27T15:01:17.000Z,0.60
2019-01-27T15:06:22.661Z,0.50
2019-01-27T15:11:27.935Z,0.80
2019-01-27T15:16:32.959Z,0.80
2019-01-27T15:21:38.235Z,1.00
2019-01-27T15:26:44.625Z,1.10
2019-01-27T15:31:51.372Z,1.30
2019-01-27T15:36:56.768Z,0.87
2019-01-27T15:42:01.862Z,1.20
2019-01-27T15:47:07.093Z,1.20
2019-01-27T15:52:14.192Z,1.23
2019-01-27T15:57:20.316Z,0.90
2019-01-27T16:02:25.678Z,1.20
2019-01-27T16:07:30.836Z,1.10
2019-01-27T16:12:36.125Z,1.10
2019-01-27T16:17:41.318Z,1.33
2019-01-27T16:23:00.269Z,1.23
2019-01-27T16:28:07.572Z,1.60
2019-01-27T16:33:17.286Z,0.93
2019-01-27T16:38:22.511Z,1.00
2019-01-27T16:43:27.404Z,1.40
2019-01-27T16:48:32.372Z,1.53
2019-01-27T16:53:37.609Z,1.57
2019-01-27T16:58:43.161Z,1.53
2019-01-27T17:03:49.007Z,1.63
2019-01-27T17:08:54.038Z,1.90
2019-01-27T17:14:01.537Z,1.60
2019-01-27T17:19:06.982Z,1.60
2019-01-27T17:24:14.566Z,1.80
2019-01-27T17:29:19.796Z,1.93
2019-01-27T17:34:24.875Z,1.60
2019-01-27T17:39:31.923Z,3.53
2019-01-27T17:44:36.920Z,3.73
2019-01-27T17:49:42.866Z,3.10
2019-01-27T17:54:47.905Z,2.40
2019-01-27T18:00:01.955Z,2.53
2019-01-27T18:05:18.306Z,2.43
2019-01-27T18:10:34.094Z,2.53
2019-01-27T18:15:39.245Z,2.40
2019-01-27T18:20:46.223Z,2.37
2019-01-27T18:25:54.706Z,2.10
2019-01-27T18:31:02.744Z,2.00
2019-01-27T18:36:09.745Z,1.97
2019-01-27T18:41:15.068Z,2.03
2019-01-27T18:46:20.010Z,1.80
2019-01-27T18:51:27.739Z,2.00
2019-01-27T18:56:42.551Z,1.93
2019-01-27T19:02:08.382Z,1.70
2019-01-27T19:07:42.588Z,2.40
2019-01-27T19:13:09.845Z,2.10
2019-01-27T19:18:36.923Z,2.03
2019-01-27T19:24:01.087Z,2.13
2019-01-27T19:29:35.894Z,1.73
2019-01-27T19:35:02.765Z,2.20
2019-01-27T19:40:26.433Z,2.37
2019-01-27T19:45:49.650Z,3.30
2019-01-27T19:51:17.031Z,2.30
2019-01-27T19:56:50.014Z,1.83
2019-01-27T20:02:33.329Z,2.20
2019-01-27T20:08:03.029Z,1.93
2019-01-27T20:13:15.747Z,2.57
2019-01-27T20:18:43.999Z,2.73
2019-01-27T20:24:00.801Z,2.17
2019-01-27T20:29:11.781Z,2.00
2019-01-27T20:34:42.613Z,2.60
2019-01-27T20:40:06.402Z,2.90
2019-01-27T20:45:35.461Z,2.23
2019-01-27T20:50:56.105Z,2.63
2019-01-27T20:56:17.253Z,1.83
2019-01-27T21:01:42.708Z,2.63
2019-01-27T21:06:53.017Z,2.10
2019-01-27T21:12:30.329Z,2.00
2019-01-27T21:17:53.862Z,1.97
2019-01-27T21:22:58.985Z,1.77
2019-01-27T21:28:04.316Z,2.07
2019-01-27T21:33:09.657Z,2.13
2019-01-27T21:38:17.857Z,2.07
2019-01-27T21:43:23.971Z,2.17
2019-01-27T21:48:29.115Z,2.67
2019-01-27T21:53:34.954Z,2.20
2019-01-27T21:58:41.847Z,2.17
2019-01-27T22:03:49.201Z,2.10
2019-01-27T22:08:54.889Z,1.80
2019-01-27T22:14:02.443Z,2.27
2019-01-27T22:19:08.364Z,2.90
2019-01-27T22:24:13.325Z,3.73
2019-01-27T22:29:18.322Z,3.60
2019-01-27T22:34:23.886Z,3.10
2019-01-27T22:39:30.168Z,2.37
2019-01-27T22:44:35.534Z,2.40
2019-01-27T22:49:42.691Z,2.03
2019-01-27T22:54:47.605Z,2.43
2019-01-27T22:59:53.994Z,2.10
2019-01-27T23:04:59.497Z,2.77
2019-01-27T23:10:05.435Z,2.30
2019-01-27T23:15:11.186Z,2.13
2019-01-27T23:20:17.638Z,1.97
2019-01-27T23:25:22.656Z,2.17
2019-01-27T23:30:28.021Z,2.30
2019-01-27T23:35:33.202Z,2.50
2019-01-27T23:40:38.408Z,2.10
2019-01-27T23:45:44.566Z,2.07
2019-01-27T23:50:49.542Z,2.83
2019-01-27T23:55:55.145Z,2.30
